createdAt,value
2022-08-26T06:14:10.297Z,1006.62
2022-08-26T06:24:10.279Z,1006.51
2022-08-26T06:34:10.883Z,1006.58
2022-08-26T06:44:10.246Z,1006.57
2022-08-26T06:54:10.432Z,1006.68
2022-08-26T07:04:10.800Z,1006.73
2022-08-26T07:14:10.512Z,1006.88
2022-08-26T07:24:10.991Z,1006.80
2022-08-26T07:34:10.445Z,1006.76
2022-08-26T07:44:10.414Z,1006.74
2022-08-26T07:54:10.377Z,1006.90
2022-08-26T08:04:10.527Z,1006.98
2022-08-26T08:14:11.730Z,1006.99
2022-08-26T08:24:10.610Z,1007.11
2022-08-26T08:34:10.274Z,1007.02
2022-08-26T08:44:10.541Z,1007.08
2022-08-26T08:54:10.447Z,1007.08
2022-08-26T09:04:10.646Z,1006.94
2022-08-26T09:14:10.645Z,1006.94
2022-08-26T09:24:11.260Z,1006.95
2022-08-26T09:34:10.695Z,1006.87
2022-08-26T09:44:14.633Z,1006.82
2022-08-26T09:54:10.558Z,1006.63
2022-08-26T10:04:10.889Z,1006.70
2022-08-26T10:14:10.590Z,1006.59
2022-08-26T10:24:11.416Z,1006.40
2022-08-26T10:34:12.467Z,1006.22
2022-08-26T10:44:10.613Z,1006.07
2022-08-26T10:54:10.605Z,1005.95
2022-08-26T11:04:10.777Z,1005.94
2022-08-26T11:14:10.785Z,1005.87
2022-08-26T11:24:10.656Z,1005.76
2022-08-26T11:34:11.036Z,1005.57
2022-08-26T11:44:10.816Z,1005.39
2022-08-26T11:54:10.665Z,1005.33
2022-08-26T12:04:10.690Z,1005.08
2022-08-26T12:14:10.588Z,1005.03
2022-08-26T12:24:10.739Z,1004.78
2022-08-26T12:34:15.873Z,1004.82
2022-08-26T12:44:10.601Z,1004.80
2022-08-26T12:54:10.747Z,1004.75
2022-08-26T13:04:10.608Z,1004.68
2022-08-26T13:14:10.656Z,1004.45
2022-08-26T13:24:10.726Z,1004.30
2022-08-26T13:34:10.629Z,1004.20
2022-08-26T13:44:10.780Z,1004.61
2022-08-26T13:54:10.754Z,1004.71
2022-08-26T14:04:10.914Z,1004.54
2022-08-26T14:14:10.780Z,1004.40
2022-08-26T14:24:10.743Z,1004.17
2022-08-26T14:34:10.799Z,1004.31
2022-08-26T14:44:10.785Z,1004.27
2022-08-26T14:54:10.842Z,1004.22
2022-08-26T15:04:11.017Z,1004.28
2022-08-26T15:14:14.829Z,1004.15
2022-08-26T15:24:10.806Z,1004.15
2022-08-26T15:34:14.575Z,1004.14
2022-08-26T15:44:10.929Z,1004.30
2022-08-26T15:54:10.918Z,1004.19
2022-08-26T16:04:10.882Z,1004.14
2022-08-26T16:14:10.865Z,1004.26
2022-08-26T16:24:10.938Z,1004.48
2022-08-26T16:34:11.052Z,1004.50
2022-08-26T16:44:11.026Z,1004.65
2022-08-26T16:54:10.974Z,1004.91
2022-08-26T17:04:11.065Z,1004.94
2022-08-26T17:14:11.032Z,1004.81
2022-08-26T17:24:11.186Z,1005.01
2022-08-26T17:34:11.287Z,1005.03
2022-08-26T17:44:11.406Z,1005.28
2022-08-26T17:54:11.295Z,1005.33
2022-08-26T18:04:11.483Z,1005.50
2022-08-26T18:14:11.295Z,1005.40
2022-08-26T18:24:14.064Z,1005.59
2022-08-26T18:34:11.269Z,1005.30
2022-08-26T18:44:13.571Z,1005.31
2022-08-26T18:54:11.353Z,1005.11
2022-08-26T19:04:11.392Z,1005.33
2022-08-26T19:14:11.320Z,1005.53
